createdAt,value
2019-05-07T00:01:52.576Z,71.37
2019-05-07T00:04:22.472Z,71.27
2019-05-07T00:06:52.913Z,71.28
2019-05-07T00:09:23.255Z,71.24
2019-05-07T00:11:53.543Z,71.04
2019-05-07T00:14:24.332Z,70.83
2019-05-07T00:16:54.062Z,70.75
2019-05-07T00:19:24.077Z,70.85
2019-05-07T00:21:54.050Z,70.78
2019-05-07T00:24:23.612Z,71.05
2019-05-07T00:26:53.432Z,71.14
2019-05-07T00:29:23.087Z,71.26
2019-05-07T00:31:52.647Z,71.19
2019-05-07T00:34:24.115Z,71.14
2019-05-07T00:37:13.119Z,71.18
2019-05-07T00:39:44.404Z,71.26
2019-05-07T00:42:27.139Z,71.38
2019-05-07T00:45:13.321Z,71.53
2019-05-07T00:47:29.741Z,71.66
2019-05-07T00:50:03.179Z,71.77
2019-05-07T00:52:33.506Z,71.80
2019-05-07T00:55:03.915Z,71.83
2019-05-07T00:57:33.834Z,71.82
2019-05-07T01:00:04.632Z,71.84
2019-05-07T01:02:34.189Z,71.94
2019-05-07T01:05:04.078Z,72.08
2019-05-07T01:07:33.618Z,72.12
2019-05-07T01:10:03.658Z,72.16
2019-05-07T01:12:33.214Z,72.09
2019-05-07T01:15:03.091Z,72.12
2019-05-07T01:17:33.470Z,72.21
2019-05-07T01:20:03.308Z,72.37
2019-05-07T01:22:33.186Z,72.45
2019-05-07T01:25:03.695Z,72.36
2019-05-07T01:27:33.293Z,72.22
2019-05-07T01:30:03.110Z,72.26
2019-05-07T01:32:37.213Z,72.27
2019-05-07T01:35:14.626Z,72.05
2019-05-07T01:37:44.208Z,71.98
2019-05-07T01:40:13.805Z,71.96
2019-05-07T01:42:43.361Z,71.97
2019-05-07T01:45:14.587Z,71.95
2019-05-07T01:47:44.151Z,71.86
2019-05-07T01:50:13.890Z,71.69
2019-05-07T01:52:43.462Z,71.64
2019-05-07T01:55:13.232Z,71.57
2019-05-07T01:57:42.938Z,71.41
2019-05-07T02:00:13.271Z,71.28
2019-05-07T02:02:44.470Z,71.28
2019-05-07T02:05:24.856Z,71.46
2019-05-07T02:07:56.067Z,71.59
2019-05-07T02:10:32.066Z,71.72
2019-05-07T02:13:02.381Z,71.79
2019-05-07T02:15:32.390Z,71.69
2019-05-07T02:18:02.196Z,71.68
2019-05-07T02:20:32.295Z,71.81
2019-05-07T02:23:02.754Z,71.85
2019-05-07T02:25:32.906Z,71.65
2019-05-07T02:28:02.601Z,71.47
2019-05-07T02:30:35.007Z,71.40
2019-05-07T02:33:04.026Z,71.46
2019-05-07T02:35:33.967Z,71.54
2019-05-07T02:38:05.180Z,71.66
2019-05-07T02:40:48.439Z,71.89
2019-05-07T02:43:18.028Z,72.11
2019-05-07T02:45:47.306Z,72.32
2019-05-07T02:48:18.521Z,72.46
2019-05-07T02:51:04.112Z,72.53
2019-05-07T02:53:42.834Z,72.58
2019-05-07T02:56:12.966Z,72.78
2019-05-07T02:58:43.568Z,72.91
2019-05-07T03:01:14.157Z,73.01
2019-05-07T03:03:44.996Z,73.11
2019-05-07T03:06:14.981Z,73.14
2019-05-07T03:08:45.171Z,73.13
2019-05-07T03:11:14.989Z,72.93
2019-05-07T03:13:44.889Z,72.66
2019-05-07T03:16:14.452Z,72.47
2019-05-07T03:18:44.246Z,72.33
2019-05-07T03:21:18.062Z,72.42
2019-05-07T03:24:03.446Z,72.73
2019-05-07T03:26:37.706Z,73.04
2019-05-07T03:29:08.883Z,73.29
2019-05-07T03:31:47.073Z,73.25
2019-05-07T03:34:19.073Z,73.03
2019-05-07T03:36:55.728Z,72.96
2019-05-07T03:39:24.040Z,73.04
2019-05-07T03:41:53.327Z,73.27
2019-05-07T03:44:24.939Z,73.61
2019-05-07T03:47:02.056Z,73.89
2019-05-07T03:49:29.041Z,74.09
2019-05-07T03:52:03.845Z,74.08
2019-05-07T03:54:33.930Z,74.31
2019-05-07T03:57:10.770Z,74.54
2019-05-07T03:59:34.584Z,74.62
2019-05-07T04:02:04.379Z,74.56
2019-05-07T04:04:35.125Z,74.66
2019-05-07T04:07:05.026Z,74.92
2019-05-07T04:09:34.612Z,75.11
2019-05-07T04:12:04.311Z,75.23
2019-05-07T04:14:34.623Z,75.33
2019-05-07T04:17:16.710Z,75.37
2019-05-07T04:19:35.834Z,75.33
2019-05-07T04:22:05.885Z,75.12
2019-05-07T04:24:42.627Z,74.96
2019-05-07T04:27:13.116Z,75.00
2019-05-07T04:29:43.118Z,75.11
2019-05-07T04:32:14.530Z,75.10
2019-05-07T04:35:03.875Z,75.13
2019-05-07T04:37:33.386Z,75.08
2019-05-07T04:40:03.483Z,75.05
2019-05-07T04:42:33.581Z,75.05
2019-05-07T04:45:04.550Z,74.95
2019-05-07T04:47:42.575Z,74.87
2019-05-07T04:50:08.754Z,74.84
2019-05-07T04:52:38.999Z,74.83
2019-05-07T04:55:08.862Z,74.83
2019-05-07T04:57:38.433Z,74.76
2019-05-07T05:00:13.192Z,74.68
2019-05-07T05:02:52.613Z,74.58
2019-05-07T05:05:23.592Z,74.52
2019-05-07T05:07:53.982Z,74.47
2019-05-07T05:10:23.897Z,74.39
2019-05-07T05:12:53.916Z,74.21
2019-05-07T05:15:23.466Z,74.07
2019-05-07T05:17:53.993Z,73.97
2019-05-07T05:20:28.128Z,73.83
2019-05-07T05:23:02.555Z,73.69
2019-05-07T05:25:44.323Z,73.63
2019-05-07T05:28:14.678Z,73.45
2019-05-07T05:30:47.151Z,73.28
2019-05-07T05:33:16.675Z,73.04
2019-05-07T05:35:46.238Z,72.95
2019-05-07T05:38:15.804Z,72.66
2019-05-07T05:40:46.437Z,72.35
2019-05-07T05:43:27.872Z,72.19
2019-05-07T05:45:59.132Z,72.04
2019-05-07T05:48:28.746Z,71.90
2019-05-07T05:50:59.973Z,71.82
2019-05-07T05:53:36.650Z,71.85
2019-05-07T05:56:18.928Z,71.91
2019-05-07T05:58:52.857Z,71.86
2019-05-07T06:04:33.819Z,71.75
2019-05-07T06:07:11.463Z,71.68
2019-05-07T06:09:42.217Z,71.44
2019-05-07T06:12:13.649Z,71.24
2019-05-07T06:14:45.713Z,71.17
2019-05-07T06:17:27.064Z,70.96
2019-05-07T06:19:58.981Z,70.77
2019-05-07T06:22:33.036Z,70.77
2019-05-07T06:25:04.380Z,70.76
2019-05-07T06:27:33.921Z,70.57
2019-05-07T06:30:05.029Z,70.41
2019-05-07T06:32:34.971Z,70.43
2019-05-07T06:35:06.389Z,70.22
2019-05-07T06:37:36.290Z,70.25
2019-05-07T06:40:29.367Z,70.14
2019-05-07T06:42:58.343Z,69.84
2019-05-07T06:45:35.125Z,69.65
2019-05-07T06:48:03.718Z,69.25
2019-05-07T06:50:33.280Z,69.20
2019-05-07T06:53:02.933Z,69.16
2019-05-07T06:55:32.622Z,69.13
2019-05-07T06:58:02.787Z,68.92
2019-05-07T07:00:35.262Z,68.66
2019-05-07T07:03:12.806Z,68.33
2019-05-07T07:05:44.647Z,67.38
2019-05-07T07:08:25.068Z,67.44
2019-05-07T07:11:05.713Z,67.32
2019-05-07T07:13:35.329Z,67.76
2019-05-07T07:16:05.256Z,67.49
2019-05-07T07:18:48.500Z,66.71
2019-05-07T07:21:06.416Z,65.92
2019-05-07T07:23:36.122Z,65.87
2019-05-07T07:26:05.904Z,65.27
2019-05-07T07:28:35.467Z,64.92
2019-05-07T07:31:09.323Z,63.36
2019-05-07T07:33:46.358Z,62.55
2019-05-07T07:36:16.069Z,62.52
2019-05-07T07:38:45.641Z,62.12
2019-05-07T07:41:16.942Z,61.80
2019-05-07T07:43:46.583Z,60.09
2019-05-07T07:46:17.882Z,60.04
2019-05-07T07:48:47.381Z,59.86
2019-05-07T07:51:17.367Z,57.86
2019-05-07T07:53:47.290Z,58.21
2019-05-07T07:56:28.428Z,56.99
2019-05-07T07:59:12.662Z,57.47
2019-05-07T08:01:53.108Z,57.11
2019-05-07T08:04:22.948Z,56.74
2019-05-07T08:07:04.639Z,56.84
2019-05-07T08:09:35.914Z,56.59
2019-05-07T08:12:06.077Z,55.42
2019-05-07T08:14:35.779Z,54.04
2019-05-07T08:17:07.154Z,54.17
2019-05-07T08:19:37.161Z,54.51
2019-05-07T08:22:06.850Z,53.37
2019-05-07T08:24:36.421Z,53.77
2019-05-07T08:27:06.233Z,54.13
2019-05-07T08:29:35.815Z,54.97
2019-05-07T08:32:22.266Z,55.30
2019-05-07T08:34:56.414Z,56.77
2019-05-07T08:37:25.959Z,57.04
2019-05-07T08:39:55.515Z,56.73
2019-05-07T08:42:25.035Z,56.22
2019-05-07T08:44:56.289Z,56.30
2019-05-07T08:47:31.905Z,56.27
2019-05-07T08:50:02.889Z,56.17
2019-05-07T08:52:32.768Z,56.04
2019-05-07T08:55:02.494Z,56.06
2019-05-07T08:57:32.069Z,56.15
2019-05-07T09:00:04.611Z,55.88
2019-05-07T09:02:32.879Z,55.60
2019-05-07T09:05:03.038Z,55.17
2019-05-07T09:07:32.698Z,55.35
2019-05-07T09:10:02.631Z,55.49
2019-05-07T09:12:32.179Z,55.58
2019-05-07T09:15:02.312Z,56.41
2019-05-07T09:17:31.992Z,56.80
2019-05-07T09:20:02.620Z,57.03
2019-05-07T09:22:32.574Z,57.61
2019-05-07T09:25:03.058Z,57.95
2019-05-07T09:27:34.416Z,58.53
2019-05-07T09:30:24.171Z,58.58
2019-05-07T09:33:04.517Z,58.43
2019-05-07T09:35:39.863Z,57.91
2019-05-07T09:38:09.622Z,57.62
2019-05-07T09:40:39.177Z,57.37
2019-05-07T09:43:08.727Z,56.78
2019-05-07T09:45:38.298Z,56.29
2019-05-07T09:48:08.481Z,55.79
2019-05-07T09:50:38.922Z,55.45
2019-05-07T09:53:08.602Z,55.23
2019-05-07T09:55:39.374Z,54.98
2019-05-07T09:58:12.593Z,54.26
2019-05-07T10:00:43.119Z,53.72
2019-05-07T10:03:12.982Z,53.41
2019-05-07T10:05:42.960Z,54.10
2019-05-07T10:08:13.026Z,54.49
2019-05-07T10:10:44.961Z,54.08
2019-05-07T10:13:33.027Z,54.31
2019-05-07T10:16:04.310Z,54.78
2019-05-07T10:18:34.673Z,55.49
2019-05-07T10:21:04.402Z,54.87
2019-05-07T10:23:33.951Z,54.45
2019-05-07T10:26:04.537Z,54.21
2019-05-07T10:28:34.053Z,53.60
2019-05-07T10:31:03.629Z,53.83
2019-05-07T10:33:33.323Z,52.90
2019-05-07T10:36:04.087Z,51.69
2019-05-07T10:38:35.755Z,51.76
2019-05-07T10:41:09.127Z,51.85
2019-05-07T10:43:38.976Z,51.72
2019-05-07T10:46:12.828Z,51.38
2019-05-07T10:48:44.464Z,51.62
2019-05-07T10:51:14.063Z,52.51
2019-05-07T10:53:43.990Z,53.25
2019-05-07T10:56:13.620Z,53.49
2019-05-07T10:58:43.343Z,52.82
2019-05-07T11:01:15.244Z,52.95
2019-05-07T11:03:44.935Z,53.60
2019-05-07T11:06:14.491Z,53.72
2019-05-07T11:08:44.079Z,53.65
2019-05-07T11:11:13.657Z,53.03
2019-05-07T11:13:44.592Z,53.55
2019-05-07T11:16:18.940Z,54.08
2019-05-07T11:18:51.786Z,53.21
2019-05-07T11:21:32.991Z,53.00
2019-05-07T11:24:03.320Z,52.75
2019-05-07T11:26:33.153Z,52.84
2019-05-07T11:29:02.748Z,52.87
2019-05-07T11:31:33.083Z,53.26
2019-05-07T11:34:03.100Z,53.53
2019-05-07T11:36:34.483Z,53.33
2019-05-07T11:39:05.858Z,53.03
2019-05-07T11:41:37.122Z,53.10
2019-05-07T11:44:14.562Z,52.33
2019-05-07T11:46:45.768Z,52.65
2019-05-07T11:49:22.935Z,52.55
2019-05-07T11:51:56.801Z,51.69
2019-05-07T11:54:26.384Z,51.73
2019-05-07T11:56:55.995Z,48.63
2019-05-07T11:59:25.544Z,48.22
2019-05-07T12:01:56.731Z,49.68
2019-05-07T12:04:28.019Z,49.48
2019-05-07T12:06:57.715Z,48.43
2019-05-07T12:09:27.249Z,48.60
2019-05-07T12:11:56.855Z,49.18
2019-05-07T12:14:31.638Z,49.00
2019-05-07T12:16:57.663Z,48.07
2019-05-07T12:19:27.266Z,48.12
2019-05-07T12:21:57.483Z,49.15
2019-05-07T12:24:27.076Z,48.94
2019-05-07T12:26:56.657Z,47.99
2019-05-07T12:29:26.210Z,47.66
2019-05-07T12:32:06.438Z,47.78
2019-05-07T12:34:37.635Z,48.25
2019-05-07T12:37:07.196Z,49.06
2019-05-07T12:39:36.751Z,49.42
2019-05-07T12:42:06.368Z,49.54
2019-05-07T12:44:35.953Z,48.37
2019-05-07T12:47:05.827Z,48.43
2019-05-07T12:49:35.379Z,47.93
2019-05-07T12:52:06.642Z,48.31
2019-05-07T12:54:43.460Z,48.19
2019-05-07T12:57:12.993Z,47.55
2019-05-07T12:59:42.723Z,47.20
2019-05-07T13:02:37.953Z,49.61
2019-05-07T13:05:02.966Z,50.11
2019-05-07T13:07:32.542Z,50.48
2019-05-07T13:10:02.715Z,50.74
2019-05-07T13:12:32.620Z,51.08
2019-05-07T13:15:02.915Z,51.17
2019-05-07T13:17:33.799Z,51.31
2019-05-07T13:20:05.097Z,51.65
2019-05-07T13:22:34.638Z,51.30
2019-05-07T13:25:06.535Z,51.03
2019-05-07T13:27:36.074Z,51.05
2019-05-07T13:30:07.823Z,51.26
2019-05-07T13:32:39.032Z,50.72
2019-05-07T13:35:11.872Z,50.21
2019-05-07T13:37:47.535Z,49.54
2019-05-07T13:40:24.750Z,49.61
2019-05-07T13:42:55.956Z,48.80
2019-05-07T13:45:31.648Z,48.08
2019-05-07T13:48:12.101Z,48.04
2019-05-07T13:50:42.192Z,48.59
2019-05-07T13:53:12.329Z,48.92
2019-05-07T13:55:42.431Z,47.50
2019-05-07T13:58:14.246Z,46.11
2019-05-07T14:00:51.284Z,46.11
2019-05-07T14:03:22.691Z,45.50
2019-05-07T14:05:52.632Z,45.19
2019-05-07T14:08:23.859Z,45.06
2019-05-07T14:10:53.650Z,46.11
2019-05-07T14:13:23.276Z,46.13
2019-05-07T14:16:12.681Z,46.03
2019-05-07T14:18:42.436Z,45.93
2019-05-07T14:21:12.996Z,46.37
2019-05-07T14:23:42.904Z,46.11
2019-05-07T14:26:12.535Z,46.09
2019-05-07T14:28:42.343Z,43.66
2019-05-07T14:31:12.394Z,43.76
2019-05-07T14:33:47.252Z,44.46
2019-05-07T14:36:19.537Z,44.81
2019-05-07T14:38:53.507Z,43.66
2019-05-07T14:41:25.661Z,43.21
2019-05-07T14:43:58.763Z,44.06
2019-05-07T14:46:43.476Z,44.47
2019-05-07T14:48:59.785Z,44.28
2019-05-07T14:51:29.673Z,44.59
2019-05-07T14:53:59.337Z,43.47
2019-05-07T14:56:32.251Z,42.77
2019-05-07T14:59:02.352Z,43.52
2019-05-07T15:01:33.955Z,44.46
2019-05-07T15:04:03.856Z,44.77
2019-05-07T15:06:33.426Z,44.94
2019-05-07T15:09:04.671Z,45.28
2019-05-07T15:11:34.941Z,44.96
2019-05-07T15:14:04.827Z,43.71
2019-05-07T15:16:34.511Z,44.06
2019-05-07T15:19:06.716Z,44.14
2019-05-07T15:21:36.574Z,43.75
2019-05-07T15:24:06.316Z,43.55
2019-05-07T15:26:35.939Z,44.39
2019-05-07T15:29:12.079Z,44.58
2019-05-07T15:31:53.963Z,43.69
2019-05-07T15:34:23.748Z,42.43
2019-05-07T15:36:53.505Z,43.47
2019-05-07T15:39:24.066Z,43.53
2019-05-07T15:41:53.700Z,42.86
2019-05-07T15:44:23.268Z,42.05
2019-05-07T15:46:54.689Z,41.59
2019-05-07T15:49:24.235Z,42.32
2019-05-07T15:51:55.421Z,41.99
2019-05-07T15:54:25.316Z,42.11
2019-05-07T15:56:56.514Z,42.61
2019-05-07T15:59:26.103Z,43.29
2019-05-07T16:01:57.306Z,43.57
2019-05-07T16:04:26.845Z,44.09
2019-05-07T16:06:58.038Z,44.24
2019-05-07T16:09:32.501Z,44.16
2019-05-07T16:12:01.992Z,44.06
2019-05-07T16:14:32.173Z,43.76
2019-05-07T16:17:03.362Z,44.41
2019-05-07T16:19:33.025Z,43.55
2019-05-07T16:22:04.231Z,44.13
2019-05-07T16:24:33.784Z,43.85
2019-05-07T16:27:05.249Z,44.24
2019-05-07T16:29:35.861Z,44.79
2019-05-07T16:32:05.565Z,44.56
2019-05-07T16:34:35.128Z,44.38
2019-05-07T16:37:07.467Z,44.63
2019-05-07T16:39:36.513Z,44.42
2019-05-07T16:42:06.073Z,44.67
2019-05-07T16:44:35.682Z,45.32
2019-05-07T16:47:05.304Z,45.92
2019-05-07T16:49:35.035Z,46.00
2019-05-07T16:52:04.930Z,45.18
2019-05-07T16:54:34.469Z,45.30
2019-05-07T16:57:17.685Z,45.32
2019-05-07T16:59:47.414Z,45.60
2019-05-07T17:02:18.995Z,46.07
2019-05-07T17:05:06.678Z,46.48
2019-05-07T17:07:42.680Z,46.77
2019-05-07T17:10:13.540Z,47.00
2019-05-07T17:12:46.125Z,46.94
2019-05-07T17:15:16.996Z,47.23
2019-05-07T17:17:46.622Z,47.29
2019-05-07T17:20:16.755Z,47.01
2019-05-07T17:22:46.710Z,46.88
2019-05-07T17:25:33.932Z,46.52
2019-05-07T17:28:03.486Z,46.64
2019-05-07T17:30:33.344Z,46.34
2019-05-07T17:33:02.913Z,46.34
2019-05-07T17:35:34.521Z,46.16
2019-05-07T17:38:07.243Z,46.26
2019-05-07T17:40:35.502Z,46.82
2019-05-07T17:43:05.576Z,47.76
2019-05-07T17:45:35.124Z,48.19
2019-05-07T17:48:05.214Z,48.21
2019-05-07T17:50:34.545Z,48.00
2019-05-07T17:53:04.533Z,47.45
2019-05-07T17:55:34.136Z,47.29
2019-05-07T17:58:03.714Z,47.59
2019-05-07T18:00:33.271Z,47.80
2019-05-07T18:03:13.142Z,47.69
2019-05-07T18:05:42.952Z,48.13
2019-05-07T18:08:12.732Z,48.17
2019-05-07T18:10:42.566Z,48.15
2019-05-07T18:13:12.178Z,48.84
2019-05-07T18:15:42.781Z,49.61
2019-05-07T18:18:12.988Z,50.11
2019-05-07T18:20:42.738Z,50.12
2019-05-07T18:23:16.792Z,49.90
2019-05-07T18:25:43.704Z,50.53
2019-05-07T18:28:15.814Z,49.99
2019-05-07T18:30:44.590Z,49.32
2019-05-07T18:33:14.013Z,49.58
2019-05-07T18:35:46.063Z,49.76
2019-05-07T18:38:15.633Z,49.72
2019-05-07T18:40:45.167Z,49.87
2019-05-07T18:43:14.736Z,50.14
2019-05-07T18:45:44.298Z,49.56
2019-05-07T18:48:13.865Z,49.39
2019-05-07T18:50:43.451Z,49.49
2019-05-07T18:53:13.042Z,49.17
2019-05-07T18:55:42.600Z,49.37
2019-05-07T18:58:13.366Z,49.76
2019-05-07T19:00:45.950Z,49.76
2019-05-07T19:03:17.158Z,50.12
2019-05-07T19:05:48.439Z,50.01
2019-05-07T19:08:19.030Z,50.45
2019-05-07T19:10:49.617Z,50.77
2019-05-07T19:13:22.212Z,50.75
2019-05-07T19:15:54.797Z,50.68
2019-05-07T19:18:25.753Z,50.80
2019-05-07T19:20:56.798Z,51.00
2019-05-07T19:23:28.177Z,51.01
2019-05-07T19:25:58.767Z,51.04
2019-05-07T19:28:30.172Z,50.99
2019-05-07T19:31:01.256Z,51.13
2019-05-07T19:33:32.626Z,51.35
2019-05-07T19:36:03.745Z,51.42
2019-05-07T19:38:34.522Z,51.93
2019-05-07T19:41:04.848Z,52.70
2019-05-07T19:43:36.342Z,52.92
2019-05-07T19:46:08.018Z,53.18
2019-05-07T19:48:37.816Z,53.53
2019-05-07T19:51:07.928Z,54.27
2019-05-07T19:53:38.601Z,54.68
2019-05-07T19:56:21.726Z,54.86
2019-05-07T19:58:52.647Z,55.21
2019-05-07T20:01:28.429Z,55.93
2019-05-07T20:03:59.472Z,56.83
2019-05-07T20:06:32.833Z,57.39
2019-05-07T20:09:11.985Z,57.74
2019-05-07T20:11:39.445Z,57.99
2019-05-07T20:14:10.325Z,58.19
2019-05-07T20:16:42.066Z,58.57
2019-05-07T20:19:12.017Z,58.86
2019-05-07T20:21:43.379Z,59.22
2019-05-07T20:24:13.789Z,59.62
2019-05-07T20:26:45.526Z,59.92
2019-05-07T20:29:15.143Z,60.12
2019-05-07T20:31:45.445Z,60.18
2019-05-07T20:34:16.100Z,60.26
2019-05-07T20:36:46.887Z,59.98
2019-05-07T20:39:16.745Z,59.79
2019-05-07T20:41:47.303Z,59.88
2019-05-07T20:44:17.781Z,60.11
2019-05-07T20:46:48.867Z,60.12
2019-05-07T20:49:22.259Z,60.24
2019-05-07T20:51:52.725Z,60.42
2019-05-07T20:54:32.446Z,60.54
2019-05-07T20:57:08.971Z,60.81
2019-05-07T20:59:40.087Z,61.26
2019-05-07T21:02:11.843Z,61.69
2019-05-07T21:04:43.049Z,61.96
2019-05-07T21:07:14.797Z,62.26
2019-05-07T21:09:46.707Z,62.61
2019-05-07T21:12:17.503Z,62.79
2019-05-07T21:14:47.910Z,62.79
2019-05-07T21:17:19.017Z,62.85
2019-05-07T21:19:50.128Z,62.92
2019-05-07T21:22:22.608Z,62.92
2019-05-07T21:24:53.499Z,62.93
2019-05-07T21:27:24.278Z,63.00
2019-05-07T21:29:56.404Z,62.92
2019-05-07T21:32:27.990Z,62.60
2019-05-07T21:34:58.797Z,62.53
2019-05-07T21:37:32.191Z,62.81
2019-05-07T21:40:03.415Z,62.73
2019-05-07T21:42:34.076Z,62.99
2019-05-07T21:45:06.113Z,63.19
2019-05-07T21:47:36.115Z,63.40
2019-05-07T21:50:07.779Z,63.74
2019-05-07T21:52:44.841Z,63.95
2019-05-07T21:55:26.825Z,63.95
2019-05-07T21:57:59.635Z,64.03
2019-05-07T22:00:33.194Z,64.42
2019-05-07T22:03:05.255Z,64.71
2019-05-07T22:05:36.198Z,64.71
2019-05-07T22:08:07.392Z,64.77
2019-05-07T22:10:37.408Z,64.68
2019-05-07T22:13:07.521Z,64.56
2019-05-07T22:15:38.934Z,64.66
2019-05-07T22:18:09.515Z,64.83
2019-05-07T22:20:39.368Z,64.95
2019-05-07T22:23:11.108Z,65.19
2019-05-07T22:25:42.303Z,65.44
2019-05-07T22:28:13.748Z,65.63
2019-05-07T22:30:52.619Z,65.79
2019-05-07T22:33:41.819Z,66.04
2019-05-07T22:36:12.657Z,66.24
2019-05-07T22:38:42.222Z,66.41
2019-05-07T22:41:12.827Z,66.46
2019-05-07T22:43:42.556Z,66.68
2019-05-07T22:46:12.529Z,66.79
2019-05-07T22:48:42.219Z,67.19
2019-05-07T22:51:12.579Z,67.06
2019-05-07T22:53:42.108Z,66.82
2019-05-07T22:56:12.020Z,66.86
2019-05-07T22:58:44.589Z,67.34
2019-05-07T23:01:19.884Z,67.57
2019-05-07T23:03:49.444Z,67.50
2019-05-07T23:06:19.108Z,67.33
2019-05-07T23:08:48.735Z,67.76
2019-05-07T23:11:18.274Z,67.88
2019-05-07T23:13:47.809Z,67.86
2019-05-07T23:16:18.385Z,67.96
2019-05-07T23:18:47.975Z,68.11
2019-05-07T23:21:17.545Z,68.21
2019-05-07T23:23:47.082Z,68.39
2019-05-07T23:26:16.831Z,68.03
2019-05-07T23:28:46.453Z,67.89
2019-05-07T23:31:16.109Z,67.71
2019-05-07T23:33:45.587Z,67.67
2019-05-07T23:36:15.144Z,67.54
2019-05-07T23:38:44.711Z,67.55
2019-05-07T23:41:24.996Z,67.60
2019-05-07T23:44:12.616Z,67.82
2019-05-07T23:46:44.753Z,67.93
2019-05-07T23:49:14.176Z,68.50
2019-05-07T23:51:43.750Z,68.77
2019-05-07T23:54:13.367Z,68.87
2019-05-07T23:56:43.019Z,69.07
2019-05-07T23:59:14.925Z,69.30
